Prof. Albrecht Penck — Y3CH — position and weather

sailwx.info

Track history (hours):
 
Tides and Currents Weather Stations Pressure Air Temp Water Temp Dewpoint Dewpoint Depression Visibility Wind Speed Wind Dir Waves Ship Positions

Oceanographic research ship Prof. Albrecht Penck (Germany)

Detailed information on ship capabilities available from University of Delaware's Ocean Information Center.

Last reported at 2014-Oct-17 10:18 UTC. Time now 2014-Oct-21 18:28 UTC.
Position N 54°33' E 012°28'.

Length 38.6 m; beam 7.2 m; draft 3.2 m.

Type: Ship. MMSI: 211215130.

Date/timePositionNaut miles runAvg speedWind from/ knotsBaromVisibWave heightAir tempDewpointWater temp
2014-Oct-17 10:18N 54°33' E 012°28'2 0.4
2014-Oct-17 05:27N 54°31' E 012°26'1 0.3
2014-Oct-17 02:10N 54°30' E 012°24'6 3.0
2014-Oct-17 00:05N 54°28' E 012°14'4 8.3
2014-Oct-16 23:33N 54°24' E 012°10'9 8.6
2014-Oct-16 22:33N 54°16' E 012°06'7 7.2
2014-Oct-16 21:33N 54°09' E 012°06'2 2.2
2014-Oct-16 20:32N 54°07' E 012°05'0 0.0
2014-Oct-16 19:26N 54°07' E 012°05'0 0.0
2014-Oct-16 18:29N 54°07' E 012°05'0 0.0
2014-Oct-16 17:23N 54°07' E 012°05'0 0.0
2014-Oct-16 16:32N 54°07' E 012°05'0 0.0
2014-Oct-16 15:29N 54°07' E 012°05'0 0.0
2014-Oct-16 14:08N 54°07' E 012°05'0 0.0
2014-Oct-16 12:14N 54°07' E 012°05'0 0.0
2014-Oct-16 11:32N 54°07' E 012°05'0 0.0
2014-Oct-16 07:32N 54°07' E 012°05'0 0.0
2014-Oct-16 06:20N 54°07' E 012°05'0 0.0
2014-Oct-16 04:05N 54°07' E 012°05'0 0.0
2014-Oct-16 02:05N 54°07' E 012°05'0 0.0
2014-Oct-16 01:29N 54°07' E 012°05'0 0.0
2014-Oct-16 00:29N 54°07' E 012°05'0 0.0
2014-Oct-15 18:29N 54°07' E 012°05'0 0.0
2014-Oct-15 17:23N 54°07' E 012°05'0 0.0
2014-Oct-15 16:29N 54°07' E 012°05'0 0.0
2014-Oct-15 15:29N 54°07' E 012°05'0 0.0
2014-Oct-15 14:29N 54°07' E 012°05'0 0.0
2014-Oct-15 13:29N 54°07' E 012°05'0 0.0
2014-Oct-15 12:23N 54°07' E 012°05'0 0.0
2014-Oct-15 11:32N 54°07' E 012°05'0 0.0
2014-Oct-15 10:20N 54°07' E 012°05'0 0.0
2014-Oct-15 09:32N 54°07' E 012°05'0 0.0
2014-Oct-15 08:20N 54°07' E 012°05'0 0.0
2014-Oct-15 07:26N 54°07' E 012°05'0 0.0
2014-Oct-15 05:20N 54°07' E 012°05'0 0.0
2014-Oct-15 04:20N 54°07' E 012°05'0 0.0
2014-Oct-15 02:29N 54°07' E 012°05'0 0.0
2014-Oct-15 01:11N 54°07' E 012°05'0 0.0
2014-Oct-15 00:32N 54°07' E 012°05'0 0.0
2014-Oct-14 23:20N 54°07' E 012°05'0 0.0
2014-Oct-14 22:32N 54°07' E 012°05'0 0.0
2014-Oct-14 21:29N 54°07' E 012°05'0 0.0
2014-Oct-14 20:08N 54°07' E 012°05'0 0.0
2014-Oct-14 19:29N 54°07' E 012°05'0 0.0
2014-Oct-14 18:26N 54°07' E 012°05'0 0.0
2014-Oct-14 17:32N 54°07' E 012°05'0 0.0
2014-Oct-14 16:32N 54°07' E 012°05'0 0.0
2014-Oct-14 15:14N 54°07' E 012°05'0 0.0
2014-Oct-14 14:32N 54°07' E 012°05'0 0.0
2014-Oct-14 13:26N 54°07' E 012°05'0 0.0
2014-Oct-14 12:32N 54°07' E 012°05'0 0.0
2014-Oct-14 11:11N 54°07' E 012°05'0 0.0
2014-Oct-14 10:14N 54°07' E 012°05'0 0.0
2014-Oct-14 09:26N 54°07' E 012°05'0 0.0
2014-Oct-14 08:32N 54°07' E 012°05'0 0.0
2014-Oct-14 07:32N 54°07' E 012°05'0 0.0
2014-Oct-14 06:29N 54°07' E 012°05'0 0.0
2014-Oct-14 05:32N 54°07' E 012°05'0 0.0
2014-Oct-14 04:29N 54°07' E 012°05'0 0.0
2014-Oct-14 03:32N 54°07' E 012°05'0 0.0
2014-Oct-14 02:29N 54°07' E 012°05'0 0.0
2014-Oct-14 01:29N 54°07' E 012°05'0 0.0
2014-Oct-14 00:29N 54°07' E 012°05'0 0.0
2014-Oct-13 23:32N 54°07' E 012°05'0 0.0
2014-Oct-13 22:26N 54°07' E 012°05'0 0.0
2014-Oct-13 21:26N 54°07' E 012°05'0 0.0
2014-Oct-13 20:26N 54°07' E 012°05'0 0.0
2014-Oct-13 19:20N 54°07' E 012°05'0 0.0
2014-Oct-13 18:23N 54°07' E 012°05'0 0.0
2014-Oct-13 17:23N 54°07' E 012°05'0 0.0
2014-Oct-13 16:32N 54°07' E 012°05'0 0.0
2014-Oct-13 15:29N 54°07' E 012°05'0 0.0
2014-Oct-13 14:26N 54°07' E 012°05'0 0.0
2014-Oct-13 13:32N 54°07' E 012°05'0 0.0
2014-Oct-13 12:32N 54°07' E 012°05'0 0.0
2014-Oct-13 11:20N 54°07' E 012°05'0 0.0
2014-Oct-13 10:20N 54°07' E 012°05'0 0.0
2014-Oct-13 09:11N 54°07' E 012°05'0 0.0
2014-Oct-13 08:20N 54°07' E 012°05'0 0.0
2014-Oct-13 07:14N 54°07' E 012°05'0 0.0
2014-Oct-13 06:14N 54°07' E 012°05'0 0.0
2014-Oct-13 05:14N 54°07' E 012°05'0 0.0
2014-Oct-13 04:32N 54°07' E 012°05'0 0.0
2014-Oct-13 03:26N 54°07' E 012°05'0 0.0
2014-Oct-13 02:20N 54°07' E 012°05'0 0.0
2014-Oct-13 01:32N 54°07' E 012°05'0 0.0
2014-Oct-12 23:14N 54°07' E 012°05'0 0.0
2014-Oct-12 22:20N 54°07' E 012°05'0 0.0
2014-Oct-12 21:29N 54°07' E 012°05'0 0.0
2014-Oct-12 20:29N 54°07' E 012°05'0 0.0
2014-Oct-12 19:23N 54°07' E 012°05'0 0.0
2014-Oct-12 18:31N 54°07' E 012°05'0 0.0
2014-Oct-12 16:29N 54°07' E 012°05'0 0.0
2014-Oct-12 15:29N 54°07' E 012°05'0 0.0
2014-Oct-12 14:14N 54°07' E 012°05'0 0.0
2014-Oct-12 13:32N 54°07' E 012°05'0 0.0
2014-Oct-12 12:32N 54°07' E 012°05'0 0.0
2014-Oct-12 11:34N 54°07' E 012°05'6 6.0
2014-Oct-12 10:33N 54°13' E 012°06'8 8.5
2014-Oct-12 09:34N 54°20' E 012°14'24 1.3
2014-Oct-11 15:23N 54°33' E 012°50'6 1.5
2014-Oct-11 11:33N 54°35' E 012°59'14 2.4
2014-Oct-11 05:32N 54°41' E 012°37'  
2014-Oct-08 08:23N 54°24' E 012°10'7 8.4
2014-Oct-08 07:34N 54°18' E 012°07'8 8.0
2014-Oct-08 06:33N 54°10' E 012°06'3 2.9
2014-Oct-08 05:31N 54°07' E 012°05'0 0.0
2014-Oct-08 04:31N 54°07' E 012°05'0 0.0
2014-Oct-08 03:19N 54°07' E 012°05'0 0.0
2014-Oct-08 02:31N 54°07' E 012°05'0 0.0
2014-Oct-08 00:31N 54°07' E 012°05'0 0.0
2014-Oct-07 20:25N 54°07' E 012°05'0 0.0
2014-Oct-07 14:31N 54°07' E 012°05'0 0.0
2014-Oct-07 13:19N 54°07' E 012°05'0 0.0
2014-Oct-07 10:29N 54°07' E 012°05'  
Track history (hours):
 
Tides and Currents Weather Stations Pressure Air Temp Water Temp Dewpoint Dewpoint Depression Visibility Wind Speed Wind Dir Waves Ship Positions

Oceanographic research ship Prof. Albrecht Penck (Germany)

Detailed information on ship capabilities available from University of Delaware's Ocean Information Center.

Last reported at 2014-Oct-17 10:18 UTC. Time now 2014-Oct-21 18:28 UTC.
Position N 54°33' E 012°28'.

Length 38.6 m; beam 7.2 m; draft 3.2 m.

Type: Ship. MMSI: 211215130.

Date/timePositionNaut miles runAvg speedWind from/ knotsBaromVisibWave heightAir tempDewpointWater temp
2014-Oct-17 10:18N 54°33' E 012°28'2 0.4
2014-Oct-17 05:27N 54°31' E 012°26'1 0.3
2014-Oct-17 02:10N 54°30' E 012°24'6 3.0
2014-Oct-17 00:05N 54°28' E 012°14'4 8.3
2014-Oct-16 23:33N 54°24' E 012°10'9 8.6
2014-Oct-16 22:33N 54°16' E 012°06'7 7.2
2014-Oct-16 21:33N 54°09' E 012°06'2 2.2
2014-Oct-16 20:32N 54°07' E 012°05'0 0.0
2014-Oct-16 19:26N 54°07' E 012°05'0 0.0
2014-Oct-16 18:29N 54°07' E 012°05'0 0.0
2014-Oct-16 17:23N 54°07' E 012°05'0 0.0
2014-Oct-16 16:32N 54°07' E 012°05'0 0.0
2014-Oct-16 15:29N 54°07' E 012°05'0 0.0
2014-Oct-16 14:08N 54°07' E 012°05'0 0.0
2014-Oct-16 12:14N 54°07' E 012°05'0 0.0
2014-Oct-16 11:32N 54°07' E 012°05'0 0.0
2014-Oct-16 07:32N 54°07' E 012°05'0 0.0
2014-Oct-16 06:20N 54°07' E 012°05'0 0.0
2014-Oct-16 04:05N 54°07' E 012°05'0 0.0
2014-Oct-16 02:05N 54°07' E 012°05'0 0.0
2014-Oct-16 01:29N 54°07' E 012°05'0 0.0
2014-Oct-16 00:29N 54°07' E 012°05'0 0.0
2014-Oct-15 18:29N 54°07' E 012°05'0 0.0
2014-Oct-15 17:23N 54°07' E 012°05'0 0.0
2014-Oct-15 16:29N 54°07' E 012°05'0 0.0
2014-Oct-15 15:29N 54°07' E 012°05'0 0.0
2014-Oct-15 14:29N 54°07' E 012°05'0 0.0
2014-Oct-15 13:29N 54°07' E 012°05'0 0.0
2014-Oct-15 12:23N 54°07' E 012°05'0 0.0
2014-Oct-15 11:32N 54°07' E 012°05'0 0.0
2014-Oct-15 10:20N 54°07' E 012°05'0 0.0
2014-Oct-15 09:32N 54°07' E 012°05'0 0.0
2014-Oct-15 08:20N 54°07' E 012°05'0 0.0
2014-Oct-15 07:26N 54°07' E 012°05'0 0.0
2014-Oct-15 05:20N 54°07' E 012°05'0 0.0
2014-Oct-15 04:20N 54°07' E 012°05'0 0.0
2014-Oct-15 02:29N 54°07' E 012°05'0 0.0
2014-Oct-15 01:11N 54°07' E 012°05'0 0.0
2014-Oct-15 00:32N 54°07' E 012°05'0 0.0
2014-Oct-14 23:20N 54°07' E 012°05'0 0.0
2014-Oct-14 22:32N 54°07' E 012°05'0 0.0
2014-Oct-14 21:29N 54°07' E 012°05'0 0.0
2014-Oct-14 20:08N 54°07' E 012°05'0 0.0
2014-Oct-14 19:29N 54°07' E 012°05'0 0.0
2014-Oct-14 18:26N 54°07' E 012°05'0 0.0
2014-Oct-14 17:32N 54°07' E 012°05'0 0.0
2014-Oct-14 16:32N 54°07' E 012°05'0 0.0
2014-Oct-14 15:14N 54°07' E 012°05'0 0.0
2014-Oct-14 14:32N 54°07' E 012°05'0 0.0
2014-Oct-14 13:26N 54°07' E 012°05'0 0.0
2014-Oct-14 12:32N 54°07' E 012°05'0 0.0
2014-Oct-14 11:11N 54°07' E 012°05'0 0.0
2014-Oct-14 10:14N 54°07' E 012°05'0 0.0
2014-Oct-14 09:26N 54°07' E 012°05'0 0.0
2014-Oct-14 08:32N 54°07' E 012°05'0 0.0
2014-Oct-14 07:32N 54°07' E 012°05'0 0.0
2014-Oct-14 06:29N 54°07' E 012°05'0 0.0
2014-Oct-14 05:32N 54°07' E 012°05'0 0.0
2014-Oct-14 04:29N 54°07' E 012°05'0 0.0
2014-Oct-14 03:32N 54°07' E 012°05'0 0.0
2014-Oct-14 02:29N 54°07' E 012°05'0 0.0
2014-Oct-14 01:29N 54°07' E 012°05'0 0.0
2014-Oct-14 00:29N 54°07' E 012°05'0 0.0
2014-Oct-13 23:32N 54°07' E 012°05'0 0.0
2014-Oct-13 22:26N 54°07' E 012°05'0 0.0
2014-Oct-13 21:26N 54°07' E 012°05'0 0.0
2014-Oct-13 20:26N 54°07' E 012°05'0 0.0
2014-Oct-13 19:20N 54°07' E 012°05'0 0.0
2014-Oct-13 18:23N 54°07' E 012°05'0 0.0
2014-Oct-13 17:23N 54°07' E 012°05'0 0.0
2014-Oct-13 16:32N 54°07' E 012°05'0 0.0
2014-Oct-13 15:29N 54°07' E 012°05'0 0.0
2014-Oct-13 14:26N 54°07' E 012°05'0 0.0
2014-Oct-13 13:32N 54°07' E 012°05'0 0.0
2014-Oct-13 12:32N 54°07' E 012°05'0 0.0
2014-Oct-13 11:20N 54°07' E 012°05'0 0.0
2014-Oct-13 10:20N 54°07' E 012°05'0 0.0
2014-Oct-13 09:11N 54°07' E 012°05'0 0.0
2014-Oct-13 08:20N 54°07' E 012°05'0 0.0
2014-Oct-13 07:14N 54°07' E 012°05'0 0.0
2014-Oct-13 06:14N 54°07' E 012°05'0 0.0
2014-Oct-13 05:14N 54°07' E 012°05'0 0.0
2014-Oct-13 04:32N 54°07' E 012°05'0 0.0
2014-Oct-13 03:26N 54°07' E 012°05'0 0.0
2014-Oct-13 02:20N 54°07' E 012°05'0 0.0
2014-Oct-13 01:32N 54°07' E 012°05'0 0.0
2014-Oct-12 23:14N 54°07' E 012°05'0 0.0
2014-Oct-12 22:20N 54°07' E 012°05'0 0.0
2014-Oct-12 21:29N 54°07' E 012°05'0 0.0
2014-Oct-12 20:29N 54°07' E 012°05'0 0.0
2014-Oct-12 19:23N 54°07' E 012°05'0 0.0
2014-Oct-12 18:31N 54°07' E 012°05'0 0.0
2014-Oct-12 16:29N 54°07' E 012°05'0 0.0
2014-Oct-12 15:29N 54°07' E 012°05'0 0.0
2014-Oct-12 14:14N 54°07' E 012°05'0 0.0
2014-Oct-12 13:32N 54°07' E 012°05'0 0.0
2014-Oct-12 12:32N 54°07' E 012°05'0 0.0
2014-Oct-12 11:34N 54°07' E 012°05'6 6.0
2014-Oct-12 10:33N 54°13' E 012°06'8 8.5
2014-Oct-12 09:34N 54°20' E 012°14'24 1.3
2014-Oct-11 15:23N 54°33' E 012°50'6 1.5
2014-Oct-11 11:33N 54°35' E 012°59'14 2.4
2014-Oct-11 05:32N 54°41' E 012°37'  
2014-Oct-08 08:23N 54°24' E 012°10'7 8.4
2014-Oct-08 07:34N 54°18' E 012°07'8 8.0
2014-Oct-08 06:33N 54°10' E 012°06'3 2.9
2014-Oct-08 05:31N 54°07' E 012°05'0 0.0
2014-Oct-08 04:31N 54°07' E 012°05'0 0.0
2014-Oct-08 03:19N 54°07' E 012°05'0 0.0
2014-Oct-08 02:31N 54°07' E 012°05'0 0.0
2014-Oct-08 00:31N 54°07' E 012°05'0 0.0
2014-Oct-07 20:25N 54°07' E 012°05'0 0.0
2014-Oct-07 14:31N 54°07' E 012°05'0 0.0
2014-Oct-07 13:19N 54°07' E 012°05'0 0.0
2014-Oct-07 10:29N 54°07' E 012°05'  

Dump ship's entire track history